Time;durP1;ratioP1;P1;durP2;ratioP2;P2;SDS_P1;SDS_P2;PMS_P1;PMS_P2;Temp;Humidity;BMP_temperature;BMP_pressure;BME280_temperature;BME280_humidity;BME280_pressure;Samples;Min_cycle;Max_cycle;Signal;HPM_P1;HPM_P2
2022/05/25 00:02:22;;;;;;;6.50;6.20;;;;;;;13.66;80.32;100626.00;5029951;28;20487;-61
2022/05/25 00:04:48;;;;;;;6.60;6.30;;;;;;;13.46;81.31;100627.66;5031823;28;20036;-61
2022/05/25 00:07:16;;;;;;;6.25;6.00;;;;;;;13.52;80.59;100622.41;5033110;28;20400;-61
2022/05/25 00:09:42;;;;;;;6.40;6.10;;;;;;;13.28;82.48;100623.56;5033303;28;20021;-61
2022/05/25 00:12:08;;;;;;;6.50;6.20;;;;;;;13.25;82.79;100618.66;5033411;28;20044;-61
2022/05/25 00:14:34;;;;;;;6.60;6.30;;;;;;;13.24;83.34;100616.19;5033375;28;20030;-60
2022/05/25 00:17:00;;;;;;;6.38;6.07;;;;;;;13.18;84.01;100607.06;5033134;28;20033;-62
2022/05/25 00:22:10;;;;;;;6.40;6.10;;;;;;;13.02;85.04;100611.81;5020142;28;20173;-62
2022/05/25 00:24:35;;;;;;;6.60;6.30;;;;;;;12.97;85.67;100615.84;5032452;28;20131;-61
2022/05/25 00:27:01;;;;;;;6.88;6.57;;;;;;;13.02;84.91;100614.47;5019668;28;20479;-62
2022/05/25 00:29:26;;;;;;;6.50;6.20;;;;;;;12.94;84.78;100615.41;5037841;28;20049;-62
2022/05/25 00:31:52;;;;;;;6.47;6.18;;;;;;;13.08;84.05;100616.41;5040838;28;20025;-62
2022/05/25 00:34:18;;;;;;;6.47;6.18;;;;;;;12.78;86.22;100616.47;5031639;28;20032;-62
2022/05/25 00:36:44;;;;;;;6.60;6.30;;;;;;;12.90;86.31;100614.94;5032809;28;20029;-61
2022/05/25 00:39:10;;;;;;;6.40;6.10;;;;;;;12.90;87.64;100616.78;5019372;28;20026;-62
2022/05/25 00:41:36;;;;;;;6.25;6.03;;;;;;;12.99;87.98;100623.66;5031898;28;20485;-61
2022/05/25 00:44:03;;;;;;;6.25;5.97;;;;;;;12.84;88.62;100617.53;5032597;28;20103;-62
2022/05/25 00:46:32;;;;;;;6.40;6.10;;;;;;;12.90;89.89;100630.94;5033205;28;20029;-62
2022/05/25 00:49:04;;;;;;;6.07;5.88;;;;;;;12.76;90.66;100629.13;5032528;28;20017;-61
2022/05/25 00:51:52;;;;;;;6.70;6.40;;;;;;;12.85;90.84;100629.84;5032695;28;20128;-61
2022/05/25 00:54:58;;;;;;;6.60;6.30;;;;;;;12.75;91.61;100627.47;5032509;28;20033;-63
2022/05/25 00:57:29;;;;;;;6.50;6.20;;;;;;;12.70;93.15;100637.84;5021268;28;20095;-61
2022/05/25 01:00:33;;;;;;;6.30;6.05;;;;;;;12.66;93.41;100639.25;5032186;28;20571;-61
2022/05/25 01:03:04;;;;;;;6.32;6.03;;;;;;;12.67;93.81;100639.06;5017171;28;20053;-61
2022/05/25 01:05:34;;;;;;;6.10;5.90;;;;;;;12.62;94.40;100632.63;5031516;28;20373;-61
2022/05/25 01:08:18;;;;;;;6.60;6.30;;;;;;;12.63;94.50;100637.78;5032594;28;20017;-63
2022/05/25 01:11:30;;;;;;;6.03;5.82;;;;;;;12.61;95.34;100641.63;5031119;28;20030;-61
2022/05/25 01:14:31;;;;;;;6.03;5.82;;;;;;;12.62;95.38;100633.44;5029544;28;20047;-61
2022/05/25 01:17:24;;;;;;;6.45;6.15;;;;;;;12.65;95.46;100643.75;4991732;28;20065;-61
2022/05/25 01:20:02;;;;;;;6.00;5.80;;;;;;;12.83;94.04;100645.19;5025856;28;20116;-62
2022/05/25 01:22:46;;;;;;;6.35;6.05;;;;;;;12.68;95.78;100645.19;5020567;28;20029;-62
2022/05/25 01:25:20;;;;;;;6.40;6.10;;;;;;;12.66;95.96;100645.38;5022549;28;20044;-61
2022/05/25 01:27:48;;;;;;;6.53;6.22;;;;;;;12.64;95.98;100644.75;5016847;28;20057;-62
2022/05/25 01:30:22;;;;;;;6.10;5.90;;;;;;;12.61;96.93;100644.28;5031591;28;20040;-62
2022/05/25 01:33:13;;;;;;;6.00;5.80;;;;;;;12.59;97.01;100633.00;5020702;28;20034;-61
2022/05/25 01:35:41;;;;;;;6.10;5.90;;;;;;;12.58;97.22;100632.19;5031867;28;20698;-63
2022/05/25 01:38:13;;;;;;;6.38;6.07;;;;;;;12.57;97.58;100627.06;5031010;28;20484;-62
2022/05/25 01:40:50;;;;;;;6.40;6.10;;;;;;;12.56;97.73;100636.88;5020737;28;20108;-63
2022/05/25 01:43:39;;;;;;;6.25;6.03;;;;;;;12.55;97.82;100629.06;5031682;28;20785;-62
2022/05/25 01:46:14;;;;;;;6.50;6.20;;;;;;;12.52;98.25;100632.09;5025458;28;20049;-61
2022/05/25 01:48:41;;;;;;;6.30;6.00;;;;;;;12.49;98.56;100635.13;5027133;28;20018;-62
2022/05/25 01:51:13;;;;;;;6.05;5.85;;;;;;;12.39;99.55;100644.19;5030642;28;20033;-62
2022/05/25 01:53:43;;;;;;;6.40;6.10;;;;;;;12.47;99.13;100637.13;5031645;28;20025;-62
2022/05/25 01:56:12;;;;;;;5.97;5.78;;;;;;;12.36;100.00;100633.13;5032050;28;20041;-62
2022/05/25 01:58:42;;;;;;;6.00;5.80;;;;;;;12.21;100.00;100638.44;5031648;28;20028;-62
2022/05/25 02:01:10;;;;;;;6.07;5.88;;;;;;;12.37;100.00;100648.88;5029911;28;20108;-62
2022/05/25 02:06:49;;;;;;;5.97;5.78;;;;;;;12.17;100.00;100651.25;5017789;28;20032;-62
2022/05/25 02:09:26;;;;;;;5.63;5.43;;;;;;;12.27;100.00;100642.19;5031611;28;20034;-61
2022/05/25 02:12:32;;;;;;;6.10;5.90;;;;;;;12.21;100.00;100645.59;5032435;28;20444;-62
2022/05/25 02:15:25;;;;;;;6.30;6.00;;;;;;;12.09;100.00;100647.84;5013089;28;20065;-62
2022/05/25 02:17:58;;;;;;;6.38;6.07;;;;;;;12.04;100.00;100651.03;5031444;28;20021;-61
2022/05/25 02:20:39;;;;;;;6.00;5.80;;;;;;;11.95;100.00;100646.81;5030952;28;20039;-61
2022/05/25 02:23:19;;;;;;;6.18;5.95;;;;;;;11.92;100.00;100651.69;5031195;28;20590;-60
2022/05/25 02:25:53;;;;;;;6.80;6.50;;;;;;;11.87;100.00;100654.88;5031409;28;20030;-61
2022/05/25 02:28:18;;;;;;;;;;;;;;;11.92;100.00;100657.00;5034590;28;20030;-61
2022/05/25 02:30:49;;;;;;;6.30;6.00;;;;;;;11.90;100.00;100657.19;5036307;28;20296;-62
2022/05/25 02:33:27;;;;;;;6.00;5.80;;;;;;;11.82;100.00;100644.78;5031172;28;20237;-63
2022/05/25 02:35:56;;;;;;;6.53;6.22;;;;;;;12.01;100.00;100669.22;5031054;28;20037;-60
2022/05/25 02:38:21;;;;;;;6.30;6.00;;;;;;;12.00;100.00;100671.03;5031019;28;20024;-60
2022/05/25 02:40:47;;;;;;;6.60;6.30;;;;;;;12.09;100.00;100675.28;5033330;28;20021;-61
2022/05/25 02:43:13;;;;;;;6.38;6.07;;;;;;;12.04;100.00;100677.63;5035360;28;20476;-61
2022/05/25 02:45:39;;;;;;;6.40;6.10;;;;;;;12.16;100.00;100686.00;5036724;28;20049;-61
2022/05/25 02:48:06;;;;;;;6.00;5.80;;;;;;;12.24;100.00;100685.09;5035284;28;20104;-61
2022/05/25 02:50:31;;;;;;;6.40;6.10;;;;;;;12.61;100.00;100684.19;5034370;28;20017;-61
2022/05/25 02:52:57;;;;;;;6.45;6.15;;;;;;;13.01;100.00;100680.22;5030057;28;20029;-61
2022/05/25 02:55:23;;;;;;;6.00;5.80;;;;;;;12.90;100.00;100678.84;5034593;28;20071;-61
2022/05/25 02:57:49;;;;;;;6.30;6.00;;;;;;;12.88;100.00;100686.22;5032241;28;20025;-62
2022/05/25 03:00:15;;;;;;;6.72;6.43;;;;;;;12.93;99.90;100683.00;5034415;28;20033;-61
2022/05/25 03:02:42;;;;;;;6.60;6.30;;;;;;;13.22;98.08;100682.13;5035770;28;20435;-61
2022/05/25 03:05:09;;;;;;;6.65;6.35;;;;;;;13.23;96.57;100683.78;5034676;28;20053;-61
2022/05/25 03:07:35;;;;;;;6.60;6.30;;;;;;;14.15;91.32;100691.00;5033872;28;20358;-61
2022/05/25 03:10:01;;;;;;;6.70;6.40;;;;;;;15.14;84.78;100696.91;5020202;28;20084;-62
2022/05/25 03:12:27;;;;;;;6.60;6.30;;;;;;;16.06;78.75;100698.94;5031144;28;20049;-62
2022/05/25 03:14:52;;;;;;;6.38;6.07;;;;;;;15.62;81.22;100705.69;5034228;28;20505;-60
2022/05/25 03:17:18;;;;;;;6.65;6.35;;;;;;;15.94;77.47;100705.94;5034218;28;20048;-62
2022/05/25 03:19:55;;;;;;;6.53;6.22;;;;;;;17.67;70.23;100701.69;5040428;28;20033;-62
2022/05/25 03:22:22;;;;;;;6.80;6.50;;;;;;;17.03;71.84;100708.03;5033699;28;20100;-61
2022/05/25 03:24:47;;;;;;;6.80;6.50;;;;;;;18.48;65.06;100707.03;5034025;28;20497;-62
2022/05/25 03:27:13;;;;;;;7.00;6.70;;;;;;;18.66;63.40;100713.50;5034831;28;20037;-62
2022/05/25 03:29:39;;;;;;;6.80;6.50;;;;;;;18.01;65.02;100716.56;5034034;28;20029;-62
2022/05/25 03:32:05;;;;;;;6.88;6.57;;;;;;;18.47;62.92;100713.44;5026418;28;20029;-62
2022/05/25 03:34:32;;;;;;;6.80;6.50;;;;;;;17.94;65.18;100711.25;5033661;28;20025;-62
2022/05/25 03:36:57;;;;;;;6.80;6.50;;;;;;;19.26;59.64;100713.59;5023637;28;20099;-62
2022/05/25 03:39:25;;;;;;;6.85;6.55;;;;;;;18.05;63.85;100715.06;5033790;28;20029;-62
2022/05/25 03:41:56;;;;;;;7.10;6.80;;;;;;;20.20;58.54;100717.41;5026264;28;20032;-62
2022/05/25 03:44:22;;;;;;;7.15;6.85;;;;;;;19.83;58.32;100717.59;5032456;28;20041;-63
2022/05/25 03:46:50;;;;;;;6.80;6.50;;;;;;;20.36;55.72;100716.69;5031433;28;20385;-63
2022/05/25 03:49:15;;;;;;;7.20;6.90;;;;;;;22.39;50.61;100712.72;5039255;28;20026;-62
2022/05/25 03:51:40;;;;;;;6.93;6.63;;;;;;;19.33;58.26;100711.66;5034192;28;20034;-62
2022/05/25 03:54:06;;;;;;;6.85;6.55;;;;;;;23.73;46.98;100709.53;5041803;28;20388;-62
2022/05/25 03:56:32;;;;;;;7.00;6.70;;;;;;;24.42;43.83;100722.25;5038310;28;20029;-62
2022/05/25 03:58:58;;;;;;;7.15;6.85;;;;;;;23.27;46.38;100725.25;5038833;28;20056;-62
2022/05/25 04:01:23;;;;;;;6.85;6.55;;;;;;;21.90;49.60;100729.53;5037369;28;20506;-61
2022/05/25 04:03:49;;;;;;;7.00;6.70;;;;;;;23.33;46.87;100734.25;5044509;28;20036;-61
2022/05/25 04:06:14;;;;;;;6.72;6.43;;;;;;;22.05;49.39;100728.97;5040000;28;20036;-62
2022/05/25 04:08:40;;;;;;;7.25;6.95;;;;;;;22.02;49.43;100732.13;5035668;28;20385;-62
2022/05/25 04:11:05;;;;;;;7.07;6.78;;;;;;;21.88;50.25;100731.63;5022853;28;20029;-63
2022/05/25 04:13:31;;;;;;;7.00;6.70;;;;;;;20.83;53.85;100740.13;5034337;28;20045;-61
2022/05/25 04:15:56;;;;;;;7.05;6.75;;;;;;;23.90;45.71;100726.47;5046127;28;20158;-62
2022/05/25 04:18:22;;;;;;;7.07;6.78;;;;;;;23.33;45.21;100737.78;5030867;28;20029;-63
2022/05/25 04:20:47;;;;;;;6.95;6.65;;;;;;;23.21;45.42;100738.97;5029793;28;20123;-61
2022/05/25 04:23:13;;;;;;;7.10;6.80;;;;;;;23.72;44.15;100740.38;5029566;28;20029;-62
2022/05/25 04:25:40;;;;;;;7.30;7.00;;;;;;;23.68;44.80;100741.97;5029805;28;20586;-62
2022/05/25 04:28:07;;;;;;;7.20;6.90;;;;;;;21.78;48.54;100742.25;5036869;28;20025;-61
2022/05/25 04:30:33;;;;;;;7.45;7.15;;;;;;;24.07;43.96;100741.75;5031228;28;20022;-63
2022/05/25 04:32:58;;;;;;;7.28;6.97;;;;;;;23.08;45.24;100748.31;5030550;28;20051;-62
2022/05/25 04:35:26;;;;;;;7.18;6.88;;;;;;;25.07;41.27;100751.66;5032587;28;20112;-63
2022/05/25 04:37:52;;;;;;;7.15;6.85;;;;;;;26.02;39.44;100747.81;5032307;28;20021;-63
2022/05/25 04:40:32;;;;;;;7.05;6.75;;;;;;;25.63;39.75;100751.84;5031360;28;20116;-63
2022/05/25 04:43:01;;;;;;;7.28;6.97;;;;;;;25.47;39.55;100750.16;5026573;28;20078;-61
2022/05/25 04:45:28;;;;;;;6.90;6.60;;;;;;;25.24;40.17;100751.44;5038342;28;20491;-63
2022/05/25 04:47:59;;;;;;;7.13;6.82;;;;;;;25.57;40.02;100754.81;5032360;28;20026;-62
2022/05/25 04:50:28;;;;;;;7.30;7.00;;;;;;;25.60;38.63;100749.63;5032056;28;20374;-62
2022/05/25 04:52:56;;;;;;;7.35;7.05;;;;;;;28.10;35.25;100751.63;5030437;28;20477;-62
2022/05/25 04:58:26;;;;;;;7.07;6.78;;;;;;;26.06;37.35;100757.84;5032073;28;20032;-63
2022/05/25 05:00:52;;;;;;;7.40;7.10;;;;;;;26.13;37.83;100758.41;5022069;28;20033;-62
2022/05/25 05:03:19;;;;;;;7.18;6.88;;;;;;;25.25;40.91;100763.13;5031700;28;20033;-63
2022/05/25 05:05:46;;;;;;;7.13;6.82;;;;;;;25.28;39.25;100760.69;5031424;28;20039;-61
2022/05/25 05:08:11;;;;;;;7.13;6.82;;;;;;;25.44;40.62;100775.13;5032164;28;20104;-61
2022/05/25 05:10:37;;;;;;;7.15;6.85;;;;;;;25.44;40.27;100772.41;5032140;28;20428;-63
2022/05/25 05:13:04;;;;;;;7.05;6.75;;;;;;;22.12;47.73;100766.66;5031183;28;20029;-63
2022/05/25 05:16:01;;;;;;;7.20;6.90;;;;;;;27.65;36.44;100763.66;5032319;28;20106;-64
2022/05/25 05:18:27;;;;;;;7.30;7.00;;;;;;;24.07;43.06;100758.84;5022239;28;20044;-65
2022/05/25 05:20:52;;;;;;;7.10;6.80;;;;;;;27.33;37.11;100769.59;5039036;28;20026;-64
2022/05/25 05:23:18;;;;;;;7.07;6.78;;;;;;;27.49;35.98;100765.69;5029267;28;20033;-63
2022/05/25 05:25:43;;;;;;;7.20;6.90;;;;;;;26.71;38.50;100761.59;5023753;28;20154;-62
2022/05/25 05:28:19;;;;;;;7.18;6.88;;;;;;;27.97;35.08;100772.19;5038253;28;20499;-62
2022/05/25 05:30:50;;;;;;;7.30;7.00;;;;;;;27.86;35.56;100776.09;5032880;28;20029;-62
2022/05/25 05:33:16;;;;;;;7.40;7.10;;;;;;;28.29;34.84;100774.38;5034488;28;20519;-62
2022/05/25 05:35:48;;;;;;;7.22;6.93;;;;;;;26.76;38.53;100763.50;5034366;28;20029;-62
2022/05/25 05:38:17;;;;;;;7.05;6.75;;;;;;;29.23;32.95;100773.91;5034462;28;20029;-62
2022/05/25 05:40:43;;;;;;;7.50;7.20;;;;;;;27.95;35.18;100770.84;5035216;28;20036;-62
2022/05/25 05:43:09;;;;;;;7.47;7.18;;;;;;;30.60;31.74;100772.91;5032913;28;20025;-61
2022/05/25 05:45:38;;;;;;;7.45;7.15;;;;;;;30.13;31.46;100772.94;5032573;28;20519;-62
2022/05/25 05:48:10;;;;;;;7.55;7.25;;;;;;;32.66;28.20;100772.34;5036062;28;20616;-62
2022/05/25 05:50:38;;;;;;;7.30;7.00;;;;;;;32.49;27.25;100767.59;5045923;28;20033;-62
2022/05/25 05:53:05;;;;;;;7.38;7.07;;;;;;;31.89;28.32;100771.56;5034739;28;20476;-62
2022/05/25 05:55:31;;;;;;;7.40;7.10;;;;;;;30.70;30.16;100770.00;5038871;28;20024;-61
2022/05/25 05:57:57;;;;;;;7.30;7.00;;;;;;;32.83;26.88;100768.84;5031230;28;20033;-62
2022/05/25 06:00:22;;;;;;;7.03;6.72;;;;;;;31.02;29.00;100780.06;5030336;28;20041;-62
2022/05/25 06:02:50;;;;;;;7.05;6.75;;;;;;;31.85;27.99;100773.31;5032214;28;20068;-62
2022/05/25 06:05:16;;;;;;;7.28;6.97;;;;;;;32.50;26.56;100766.47;5033224;28;20083;-62
2022/05/25 06:07:42;;;;;;;6.97;6.68;;;;;;;31.63;26.84;100763.09;5028790;28;20053;-61
2022/05/25 06:10:08;;;;;;;6.93;6.63;;;;;;;29.78;28.42;100759.78;5031494;28;20112;-62
2022/05/25 06:12:33;;;;;;;7.03;6.72;;;;;;;29.07;29.31;100761.56;5031975;28;20103;-62
2022/05/25 06:19:25;;;;;;;7.10;6.80;;;;;;;32.42;25.55;100780.97;5025566;28;20025;-62
2022/05/25 06:20:29;;;;;;;7.30;7.00;;;;;;;31.83;25.74;100774.75;5035676;28;20036;-62
2022/05/25 06:22:54;;;;;;;7.30;7.00;;;;;;;31.13;27.00;100784.19;5034853;28;20025;-62
2022/05/25 06:25:20;;;;;;;7.35;7.05;;;;;;;31.98;25.44;100779.88;5034424;28;20100;-64
2022/05/25 06:27:45;;;;;;;7.50;7.20;;;;;;;31.39;26.34;100773.53;5031408;28;20033;-65
2022/05/25 06:30:11;;;;;;;7.30;7.00;;;;;;;31.35;26.39;100769.78;5024281;28;20021;-63
2022/05/25 06:32:37;;;;;;;7.18;6.88;;;;;;;32.05;26.68;100774.75;5033236;28;20496;-63
2022/05/25 06:35:02;;;;;;;7.32;7.03;;;;;;;32.21;24.99;100775.16;5036496;28;20389;-64
2022/05/25 06:37:28;;;;;;;7.00;6.70;;;;;;;30.44;27.97;100775.94;5034561;28;20491;-62
2022/05/25 06:39:53;;;;;;;7.25;6.95;;;;;;;29.72;28.68;100779.00;5032152;28;20033;-62
2022/05/25 06:42:19;;;;;;;7.35;7.05;;;;;;;31.23;26.64;100780.47;5039798;28;20128;-62
2022/05/25 06:44:44;;;;;;;7.30;7.00;;;;;;;30.41;27.63;100778.47;5038562;28;20141;-62
2022/05/25 06:47:17;;;;;;;7.30;7.00;;;;;;;30.95;26.68;100771.44;5042989;28;20104;-62
2022/05/25 06:49:43;;;;;;;7.20;6.90;;;;;;;31.43;26.25;100777.28;5035843;28;20021;-65
2022/05/25 06:52:10;;;;;;;7.20;6.90;;;;;;;32.77;24.96;100773.69;5029885;28;20569;-66
2022/05/25 06:54:38;;;;;;;7.10;6.80;;;;;;;32.08;25.68;100781.53;5033569;28;20053;-64
2022/05/25 06:57:04;;;;;;;7.15;6.85;;;;;;;30.12;27.47;100786.91;5043951;28;20111;-65
2022/05/25 06:59:29;;;;;;;6.80;6.50;;;;;;;30.06;27.77;100774.41;5043318;28;20347;-65
2022/05/25 07:01:55;;;;;;;7.05;6.75;;;;;;;31.09;26.67;100775.78;5035237;28;20037;-68
2022/05/25 07:04:21;;;;;;;7.10;6.80;;;;;;;30.25;27.36;100769.69;5039500;28;20037;-67
2022/05/25 07:06:47;;;;;;;6.90;6.60;;;;;;;29.93;28.42;100767.75;5043756;28;20488;-66
2022/05/25 07:09:13;;;;;;;7.10;6.80;;;;;;;30.00;27.89;100769.00;5032992;28;20028;-66
2022/05/25 07:11:39;;;;;;;7.10;6.80;;;;;;;30.05;28.09;100761.84;5038075;28;20048;-67
2022/05/25 07:14:05;;;;;;;7.22;6.93;;;;;;;29.84;28.92;100764.09;5033321;28;20040;-65
2022/05/25 07:16:32;;;;;;;7.00;6.70;;;;;;;29.68;28.95;100769.78;5043576;28;20460;-68
2022/05/25 07:18:58;;;;;;;7.18;6.88;;;;;;;28.44;30.75;100759.00;5026051;28;20035;-66
2022/05/25 07:21:31;;;;;;;7.20;6.90;;;;;;;28.86;30.26;100774.63;5030642;28;20362;-66
2022/05/25 07:23:58;;;;;;;7.10;6.80;;;;;;;29.85;28.75;100779.38;5039460;28;20480;-66
2022/05/25 07:26:25;;;;;;;7.20;6.90;;;;;;;28.24;30.10;100765.41;5034896;28;20037;-67
2022/05/25 07:28:51;;;;;;;7.20;6.90;;;;;;;28.48;30.21;100763.56;5034417;28;20059;-66
2022/05/25 07:31:37;;;;;;;7.20;6.90;;;;;;;28.03;30.45;100759.31;5025493;28;20481;-66
2022/05/25 07:34:17;;;;;;;7.03;6.72;;;;;;;28.15;30.58;100751.59;5031525;28;20033;-67
2022/05/25 07:36:48;;;;;;;7.18;6.88;;;;;;;28.09;31.03;100758.19;5037903;28;20041;-67
2022/05/25 07:39:15;;;;;;;7.00;6.70;;;;;;;27.93;31.23;100754.78;5031126;28;20029;-66
2022/05/25 07:41:45;;;;;;;6.95;6.65;;;;;;;27.43;31.32;100755.91;5033852;28;20056;-65
2022/05/25 07:44:17;;;;;;;7.30;7.00;;;;;;;27.63;30.88;100749.53;5040262;28;20126;-66
2022/05/25 07:46:42;;;;;;;6.88;6.57;;;;;;;27.41;31.60;100747.19;5040801;28;20117;-65
2022/05/25 07:49:08;;;;;;;7.00;6.70;;;;;;;27.86;31.84;100751.56;5028526;28;20032;-66
2022/05/25 07:51:33;;;;;;;6.90;6.60;;;;;;;27.41;32.48;100753.47;5029620;28;20053;-65
2022/05/25 07:54:00;;;;;;;6.80;6.50;;;;;;;27.91;30.67;100750.69;5035785;28;20075;-66
2022/05/25 07:56:32;;;;;;;6.90;6.60;;;;;;;26.79;32.53;100745.81;5037791;28;20449;-64
2022/05/25 07:59:04;;;;;;;6.60;6.30;;;;;;;26.75;32.28;100739.31;5033233;28;20029;-65
2022/05/25 08:07:07;;;;;;;6.80;6.50;;;;;;;26.38;33.34;100721.41;5038206;28;20040;-68
2022/05/25 08:09:33;;;;;;;6.70;6.40;;;;;;;26.09;33.58;100732.03;5032123;28;20025;-68
2022/05/25 08:12:01;;;;;;;6.60;6.30;;;;;;;26.83;33.02;100736.81;5032388;28;20033;-67
2022/05/25 08:14:28;;;;;;;6.95;6.65;;;;;;;25.89;34.94;100735.56;5023178;28;20026;-64
2022/05/25 08:16:54;;;;;;;6.95;6.65;;;;;;;26.37;33.57;100723.31;5032796;28;20112;-65
2022/05/25 08:19:20;;;;;;;6.93;6.63;;;;;;;26.34;33.25;100733.91;5031270;28;20500;-64
2022/05/25 08:21:49;;;;;;;6.72;6.43;;;;;;;25.87;34.58;100745.91;5029561;28;20021;-64
2022/05/25 08:24:15;;;;;;;6.57;6.28;;;;;;;26.43;34.04;100729.56;5030689;28;20026;-64
2022/05/25 08:26:42;;;;;;;6.70;6.40;;;;;;;25.56;35.22;100739.56;5033336;28;20032;-65
2022/05/25 08:29:07;;;;;;;7.00;6.70;;;;;;;25.86;35.51;100725.25;5031160;28;20036;-65
2022/05/25 08:31:33;;;;;;;6.80;6.50;;;;;;;26.45;34.00;100738.28;5038483;28;20017;-64
2022/05/25 08:33:58;;;;;;;6.88;6.57;;;;;;;26.11;34.53;100740.72;5029338;28;20052;-64
2022/05/25 08:36:24;;;;;;;7.00;6.70;;;;;;;26.71;33.84;100737.13;5038081;28;20051;-64
2022/05/25 08:38:52;;;;;;;6.82;6.53;;;;;;;26.34;32.99;100728.47;5029723;28;20033;-65
2022/05/25 08:41:23;;;;;;;6.93;6.63;;;;;;;26.39;33.20;100721.16;5030163;28;20025;-66
2022/05/25 08:43:49;;;;;;;6.90;6.60;;;;;;;26.09;34.26;100727.41;5034164;28;20056;-64
2022/05/25 08:46:19;;;;;;;6.72;6.43;;;;;;;25.40;34.47;100729.75;5036143;28;20043;-65
2022/05/25 08:48:45;;;;;;;6.85;6.55;;;;;;;25.71;33.35;100706.19;5031420;28;20029;-66
2022/05/25 08:51:15;;;;;;;6.85;6.55;;;;;;;26.00;33.46;100737.22;5033562;28;21024;-64
2022/05/25 08:53:41;;;;;;;6.47;6.18;;;;;;;25.68;33.37;100729.28;5036577;28;20043;-65
2022/05/25 08:56:28;;;;;;;6.93;6.63;;;;;;;25.68;33.75;100734.69;5032547;28;20096;-64
2022/05/25 08:59:03;;;;;;;6.95;6.65;;;;;;;26.16;33.22;100729.88;5032407;28;20036;-63
2022/05/25 09:01:34;;;;;;;6.80;6.50;;;;;;;25.70;33.23;100721.66;5031861;28;20025;-64
2022/05/25 09:04:33;;;;;;;6.90;6.60;;;;;;;25.51;33.28;100720.56;5030667;28;20034;-65
2022/05/25 09:07:12;;;;;;;6.70;6.40;;;;;;;25.18;34.05;100722.63;5030502;28;20037;-64
2022/05/25 09:09:44;;;;;;;6.85;6.55;;;;;;;25.10;34.52;100725.06;5039410;28;20128;-65
2022/05/25 09:12:22;;;;;;;6.80;6.50;;;;;;;25.24;34.32;100737.06;5030665;28;20029;-65
2022/05/25 09:15:10;;;;;;;6.85;6.55;;;;;;;25.27;33.89;100712.09;5028901;28;20033;-65
2022/05/25 09:17:47;;;;;;;6.68;6.38;;;;;;;25.27;34.53;100722.97;5038717;28;20115;-64
2022/05/25 09:20:19;;;;;;;6.85;6.55;;;;;;;25.30;34.80;100719.69;5033254;28;20064;-63
2022/05/25 09:22:45;;;;;;;6.70;6.40;;;;;;;25.57;34.03;100712.16;5034819;28;20489;-64
2022/05/25 09:25:13;;;;;;;6.88;6.57;;;;;;;25.43;33.81;100696.66;5030202;28;20035;-65
2022/05/25 09:27:44;;;;;;;6.85;6.55;;;;;;;25.22;34.37;100685.75;5035277;28;20039;-65
2022/05/25 09:30:11;;;;;;;7.03;6.72;;;;;;;25.22;34.36;100695.78;5028321;28;20029;-65
2022/05/25 09:32:36;;;;;;;6.70;6.40;;;;;;;25.00;34.31;100706.81;5036511;28;20029;-65
2022/05/25 09:35:14;;;;;;;6.80;6.50;;;;;;;25.56;33.60;100696.94;5037212;28;20029;-65
2022/05/25 09:37:53;;;;;;;7.10;6.80;;;;;;;25.11;33.29;100688.69;5032830;28;20112;-62
2022/05/25 09:40:21;;;;;;;6.90;6.60;;;;;;;25.50;33.13;100689.06;5034938;28;20021;-61
2022/05/25 09:42:58;;;;;;;6.90;6.60;;;;;;;25.26;33.37;100669.72;5018682;28;20033;-65
2022/05/25 09:45:29;;;;;;;7.07;6.78;;;;;;;25.23;32.71;100676.50;5022828;28;20382;-64
2022/05/25 09:47:55;;;;;;;6.90;6.60;;;;;;;25.11;33.32;100688.69;5033921;28;20026;-64
2022/05/25 09:50:31;;;;;;;6.80;6.50;;;;;;;24.94;33.06;100695.13;5024781;28;20063;-64
2022/05/25 09:53:01;;;;;;;6.70;6.40;;;;;;;25.27;33.33;100672.19;5027321;28;20527;-64
2022/05/25 09:55:37;;;;;;;6.80;6.50;;;;;;;25.18;32.94;100675.66;5030750;28;20546;-64
2022/05/25 09:58:07;;;;;;;6.63;6.32;;;;;;;25.75;33.15;100682.84;5027024;28;20389;-65
2022/05/25 10:00:33;;;;;;;7.13;6.82;;;;;;;24.62;33.51;100691.72;5027438;28;20095;-64
2022/05/25 10:03:26;;;;;;;6.70;6.40;;;;;;;24.99;33.18;100687.00;5027242;28;20481;-64
2022/05/25 10:05:58;;;;;;;6.70;6.40;;;;;;;25.63;33.82;100678.47;5027367;28;20401;-63
2022/05/25 10:08:37;;;;;;;6.60;6.30;;;;;;;25.81;33.01;100684.47;5024074;28;20025;-65
2022/05/25 10:11:29;;;;;;;7.00;6.70;;;;;;;25.03;33.44;100666.41;5027602;28;20076;-66
2022/05/25 10:14:23;;;;;;;6.72;6.43;;;;;;;25.41;33.40;100672.44;5038427;28;20045;-67
2022/05/25 10:16:49;;;;;;;6.60;6.30;;;;;;;25.26;33.91;100661.56;5031374;28;20029;-65
2022/05/25 10:19:18;;;;;;;6.63;6.32;;;;;;;25.60;33.45;100665.41;5031070;28;20413;-65
2022/05/25 10:21:50;;;;;;;6.53;6.22;;;;;;;25.34;33.37;100666.50;5031124;28;20041;-64
2022/05/25 10:24:33;;;;;;;6.60;6.30;;;;;;;25.26;33.27;100656.13;5030161;28;20017;-66
2022/05/25 10:27:02;;;;;;;6.65;6.35;;;;;;;24.71;34.11;100652.16;5031464;28;20025;-65
2022/05/25 10:38:38;;;;;;;6.85;6.55;;;;;;;25.28;33.27;100652.09;5031223;28;20435;-66
2022/05/25 10:41:37;;;;;;;6.80;6.50;;;;;;;24.97;34.06;100653.03;5031633;28;20025;-66
2022/05/25 10:44:04;;;;;;;6.72;6.43;;;;;;;25.16;33.43;100640.66;5030859;28;20045;-66
2022/05/25 10:46:30;;;;;;;6.50;6.20;;;;;;;25.21;33.61;100650.72;5031293;28;20021;-66
2022/05/25 10:49:19;;;;;;;6.30;6.05;;;;;;;24.80;32.95;100661.41;5031210;28;20021;-66
2022/05/25 10:51:51;;;;;;;6.60;6.30;;;;;;;25.10;33.64;100662.63;5019647;28;20769;-67
2022/05/25 10:57:26;;;;;;;6.53;6.22;;;;;;;25.14;32.74;100644.72;5031270;28;20044;-66
2022/05/25 10:59:59;;;;;;;6.90;6.60;;;;;;;25.32;32.94;100645.00;5031471;28;20033;-65
2022/05/25 11:02:53;;;;;;;6.80;6.50;;;;;;;25.41;32.90;100642.56;5034046;28;20033;-66
2022/05/25 11:05:44;;;;;;;6.60;6.30;;;;;;;25.12;32.43;100638.72;5033875;28;20096;-66
2022/05/25 11:08:18;;;;;;;6.55;6.25;;;;;;;25.17;32.75;100644.19;5034245;28;20435;-65
2022/05/25 11:10:59;;;;;;;6.55;6.25;;;;;;;25.60;32.14;100642.88;5034356;28;20025;-66
2022/05/25 11:13:55;;;;;;;6.50;6.20;;;;;;;25.34;32.39;100639.34;5034424;28;20042;-65
2022/05/25 11:16:40;;;;;;;6.68;6.38;;;;;;;24.99;32.48;100638.16;5028932;28;20022;-64
2022/05/25 11:19:20;;;;;;;6.70;6.40;;;;;;;25.05;32.70;100639.81;5015289;28;20100;-66
2022/05/25 11:21:45;;;;;;;6.78;6.47;;;;;;;25.23;32.25;100626.81;5020937;28;20079;-66
2022/05/25 11:24:23;;;;;;;6.60;6.30;;;;;;;25.16;32.76;100621.66;5034061;28;20560;-65
2022/05/25 11:26:58;;;;;;;6.68;6.38;;;;;;;25.01;32.88;100627.00;5022437;28;20079;-64
2022/05/25 11:29:44;;;;;;;6.90;6.60;;;;;;;25.20;33.29;100617.31;5022550;28;20032;-66
2022/05/25 11:32:09;;;;;;;6.68;6.38;;;;;;;25.84;32.29;100621.41;5038313;28;20029;-65
2022/05/25 11:34:50;;;;;;;6.30;6.07;;;;;;;25.80;33.02;100609.47;5023096;28;20121;-66
2022/05/25 11:37:37;;;;;;;6.65;6.35;;;;;;;26.26;31.86;100612.09;5033255;28;20028;-66
2022/05/25 11:40:28;;;;;;;6.70;6.40;;;;;;;26.12;32.25;100606.41;5032262;28;20076;-66
2022/05/25 11:43:18;;;;;;;6.55;6.25;;;;;;;26.26;31.97;100610.19;5026640;28;20036;-66
2022/05/25 11:45:55;;;;;;;6.60;6.30;;;;;;;25.98;32.62;100595.28;5030036;28;20067;-65
2022/05/25 11:48:56;;;;;;;6.85;6.55;;;;;;;26.44;32.53;100589.72;5033819;28;20040;-65
2022/05/25 11:51:39;;;;;;;6.57;6.28;;;;;;;25.95;31.77;100587.69;5021898;28;20039;-65
2022/05/25 11:54:28;;;;;;;6.68;6.38;;;;;;;26.22;32.37;100594.69;5033864;28;20025;-65
2022/05/25 11:57:19;;;;;;;6.70;6.40;;;;;;;26.67;31.87;100580.94;5033492;28;20032;-65
2022/05/25 11:59:45;;;;;;;6.60;6.30;;;;;;;26.28;31.95;100588.13;5029046;28;20058;-66
2022/05/25 12:02:51;;;;;;;6.55;6.25;;;;;;;26.57;31.96;100575.53;5026196;28;20101;-66
2022/05/25 12:05:38;;;;;;;6.63;6.32;;;;;;;25.84;31.87;100578.75;5024030;28;20044;-65
2022/05/25 12:08:07;;;;;;;6.60;6.30;;;;;;;26.29;31.36;100557.13;5032222;28;20033;-66
2022/05/25 12:10:33;;;;;;;6.32;6.03;;;;;;;25.99;31.54;100553.44;5033361;28;20029;-67
2022/05/25 12:13:04;;;;;;;6.60;6.30;;;;;;;26.14;31.38;100552.56;5033046;28;20033;-65
2022/05/25 12:15:51;;;;;;;6.80;6.50;;;;;;;26.36;32.07;100547.56;5053658;28;20492;-66